Folsomville, Indiana
Current Conditions -  °F | °C
As of 4:15 AM on Monday 26 Jan 2015 (Local Time) from KHNB Reporting Station
Overcast Overcast  
Wind Chill: 16°   Ceiling: 1400
Heat Index: 27°   Visibility: 10mi
Dew Point: 21°   Wind: 13mph
Humidity: 80%   Direction: 340°NNW
Pressure: 29.92"   Gusts: 18mph
Location:  38.13°N, 87.16°W
Report Text: KHNB 261015Z AUTO 34011G16KT 10SM OVC014 M03/M06 A2992 RMK AO1
Loading
Personal Weather Stations






























Interactive Weather Map New forecast layout! Learn more

10-Day Weather Forecast

Advertisements
Track Severe Weather on mobile